Time;durP1;ratioP1;P1;durP2;ratioP2;P2;SDS_P1;SDS_P2;PMS_P1;PMS_P2;Temp;Humidity;BMP_temperature;BMP_pressure;BME280_temperature;BME280_humidity;BME280_pressure;Samples;Min_cycle;Max_cycle;Signal;HPM_P1;HPM_P2
2024/02/26 00:02:15;;;;;;;2.47;1.70;;;8.10;1.00;;;;;;5033743;28;20419;-69
2024/02/26 00:04:40;;;;;;;2.27;1.70;;;8.10;1.00;;;;;;5034225;28;20427;-69
2024/02/26 00:07:06;;;;;;;2.37;2.10;;;8.10;1.00;;;;;;5034006;28;20619;-68
2024/02/26 00:09:35;;;;;;;2.10;1.77;;;8.20;1.00;;;;;;5033593;28;20217;-68
2024/02/26 00:12:01;;;;;;;2.50;2.10;;;8.20;1.00;;;;;;5033861;28;20202;-68
2024/02/26 00:14:26;;;;;;;4.07;2.63;;;8.20;1.00;;;;;;5033753;28;20468;-69
2024/02/26 00:16:52;;;;;;;2.43;2.10;;;8.20;1.00;;;;;;5033531;28;20213;-69
2024/02/26 00:19:17;;;;;;;2.33;2.13;;;8.20;1.00;;;;;;5033232;28;20211;-69
2024/02/26 00:21:43;;;;;;;2.53;2.13;;;8.20;1.00;;;;;;5033362;28;20514;-69
2024/02/26 00:24:08;;;;;;;1.73;1.63;;;8.20;1.00;;;;;;5033174;28;20516;-69
2024/02/26 00:26:34;;;;;;;2.23;1.87;;;8.20;1.00;;;;;;5033294;28;20260;-69
2024/02/26 00:28:59;;;;;;;2.10;1.90;;;8.20;1.00;;;;;;5033211;28;20654;-69
2024/02/26 00:31:25;;;;;;;2.83;2.23;;;8.20;1.00;;;;;;5032891;28;20673;-70
2024/02/26 00:33:51;;;;;;;2.80;2.17;;;8.20;1.00;;;;;;5032784;28;20227;-69
2024/02/26 00:36:16;;;;;;;2.27;2.07;;;8.20;1.00;;;;;;5033480;28;20181;-69
2024/02/26 00:38:44;;;;;;;2.37;2.17;;;8.10;1.00;;;;;;5033485;28;20231;-69
2024/02/26 00:41:10;;;;;;;2.20;2.00;;;8.20;1.00;;;;;;5033513;28;20246;-69
2024/02/26 00:43:37;;;;;;;2.10;1.90;;;8.20;1.00;;;;;;5014245;28;20792;-69
2024/02/26 00:46:03;;;;;;;2.20;2.00;;;8.10;1.00;;;;;;5033460;28;20175;-68
2024/02/26 00:48:29;;;;;;;1.87;1.63;;;8.10;1.00;;;;;;5015661;28;20417;-69
2024/02/26 00:50:54;;;;;;;2.10;1.67;;;8.10;1.00;;;;;;5033379;28;20323;-68
2024/02/26 00:53:20;;;;;;;2.23;2.03;;;8.10;1.00;;;;;;5032814;28;20210;-69
2024/02/26 00:55:45;;;;;;;2.20;2.00;;;8.10;1.00;;;;;;5033224;28;20174;-69
2024/02/26 00:58:11;;;;;;;2.57;2.23;;;8.10;1.00;;;;;;5033279;28;20251;-69
2024/02/26 01:00:37;;;;;;;3.13;2.83;;;8.10;1.00;;;;;;5015000;28;20323;-68
2024/02/26 01:03:03;;;;;;;2.30;1.80;;;8.00;1.00;;;;;;5032721;28;20185;-68
2024/02/26 01:05:29;;;;;;;2.87;2.40;;;8.00;1.00;;;;;;5032880;28;20412;-68
2024/02/26 01:07:54;;;;;;;2.23;1.73;;;8.00;1.00;;;;;;5032830;28;20781;-68
2024/02/26 01:10:20;;;;;;;2.30;2.10;;;8.00;1.00;;;;;;5014799;28;20299;-68
2024/02/26 01:12:45;;;;;;;2.63;2.20;;;8.00;1.00;;;;;;5032114;28;20679;-67
2024/02/26 01:15:11;;;;;;;2.33;2.13;;;8.10;1.00;;;;;;5032741;28;20243;-68
2024/02/26 01:17:36;;;;;;;2.73;1.87;;;8.00;1.00;;;;;;5014616;28;20218;-68
2024/02/26 01:20:02;;;;;;;2.53;2.33;;;8.00;1.00;;;;;;5032513;28;20676;-69
2024/02/26 01:22:28;;;;;;;2.00;1.80;;;8.00;1.00;;;;;;5032254;28;20178;-69
2024/02/26 01:24:53;;;;;;;2.53;2.17;;;8.00;1.00;;;;;;5032754;28;20208;-69
2024/02/26 01:27:19;;;;;;;3.00;2.40;;;7.90;1.00;;;;;;5032469;28;20176;-69
2024/02/26 01:29:45;;;;;;;2.63;2.10;;;8.00;1.00;;;;;;5032448;28;20202;-69
2024/02/26 01:32:10;;;;;;;3.23;2.30;;;8.00;1.00;;;;;;5031990;28;20206;-69
2024/02/26 01:34:36;;;;;;;3.87;2.20;;;8.00;1.00;;;;;;5031960;28;20416;-69
2024/02/26 01:37:02;;;;;;;2.13;1.93;;;8.00;1.00;;;;;;5032467;28;20253;-70
2024/02/26 01:39:30;;;;;;;3.47;2.80;;;8.10;1.00;;;;;;5032093;28;20526;-69
2024/02/26 01:41:55;;;;;;;3.03;2.73;;;8.00;1.00;;;;;;5032100;28;20174;-69
2024/02/26 01:44:21;;;;;;;2.77;2.50;;;8.00;1.00;;;;;;5031914;28;20418;-69
2024/02/26 01:46:47;;;;;;;3.17;2.80;;;8.00;1.00;;;;;;5014211;28;20272;-69
2024/02/26 01:49:14;;;;;;;2.77;2.57;;;8.00;1.00;;;;;;5031827;28;20439;-69
2024/02/26 01:51:43;;;;;;;3.77;2.70;;;8.10;1.00;;;;;;5014040;28;20557;-69
2024/02/26 01:54:09;;;;;;;4.20;2.80;;;8.10;1.00;;;;;;5013324;28;20408;-69
2024/02/26 01:56:36;;;;;;;3.23;2.00;;;8.00;1.00;;;;;;5014180;28;20417;-69
2024/02/26 01:59:03;;;;;;;5.50;3.63;;;8.00;1.00;;;;;;5013944;28;20417;-69
2024/02/26 02:01:31;;;;;;;2.00;1.80;;;8.00;1.00;;;;;;5032222;28;20425;-69
2024/02/26 02:03:59;;;;;;;2.87;1.90;;;8.00;1.00;;;;;;5031649;28;20820;-69
2024/02/26 02:06:25;;;;;;;3.20;2.30;;;7.90;1.00;;;;;;5032510;28;20427;-69
2024/02/26 02:08:52;;;;;;;3.00;2.00;;;7.80;1.00;;;;;;5014457;28;20943;-69
2024/02/26 02:11:17;;;;;;;2.10;1.70;;;7.80;1.00;;;;;;5031777;28;20477;-68
2024/02/26 02:13:43;;;;;;;1.73;1.53;;;7.80;1.00;;;;;;5031436;28;20459;-68
2024/02/26 02:16:08;;;;;;;2.07;1.70;;;7.90;1.00;;;;;;5031385;28;20271;-68
2024/02/26 02:18:34;;;;;;;2.20;1.67;;;7.80;1.00;;;;;;5030911;28;20174;-68
2024/02/26 02:21:03;;;;;;;2.40;1.87;;;7.90;1.00;;;;;;5031381;28;20195;-68
2024/02/26 02:23:29;;;;;;;2.43;1.83;;;7.90;1.00;;;;;;5013254;28;20185;-68
2024/02/26 02:25:57;;;;;;;2.63;1.97;;;7.90;1.00;;;;;;5013397;28;20512;-68
2024/02/26 02:28:24;;;;;;;2.73;2.30;;;7.90;1.00;;;;;;5031728;28;20256;-68
2024/02/26 02:30:50;;;;;;;2.63;2.27;;;7.90;1.00;;;;;;5031306;28;20432;-68
2024/02/26 02:33:16;;;;;;;2.00;1.60;;;8.00;1.00;;;;;;5031074;28;20600;-68
2024/02/26 02:35:41;;;;;;;2.53;1.77;;;7.80;1.00;;;;;;5031310;28;20176;-69
2024/02/26 02:38:07;;;;;;;3.30;1.93;;;7.90;1.00;;;;;;5030849;28;20421;-68
2024/02/26 02:40:32;;;;;;;2.80;1.93;;;7.90;1.00;;;;;;5031079;28;20210;-69
2024/02/26 02:42:59;;;;;;;2.13;1.70;;;7.80;1.00;;;;;;5030650;28;20185;-69
2024/02/26 02:45:25;;;;;;;2.17;1.97;;;7.80;1.00;;;;;;5031030;28;20176;-69
2024/02/26 02:47:51;;;;;;;3.90;2.33;;;7.80;1.00;;;;;;5031134;28;20767;-69
2024/02/26 02:50:16;;;;;;;3.20;1.63;;;7.70;1.00;;;;;;5031022;28;20594;-68
2024/02/26 02:52:42;;;;;;;2.00;1.70;;;7.80;1.00;;;;;;5030494;28;20271;-68
2024/02/26 02:55:08;;;;;;;3.33;1.70;;;7.70;1.00;;;;;;5030865;28;20239;-68
2024/02/26 02:57:33;;;;;;;2.57;2.27;;;7.80;1.00;;;;;;5030938;28;20268;-69
2024/02/26 02:59:59;;;;;;;2.33;2.13;;;7.80;1.00;;;;;;5030773;28;20910;-69
2024/02/26 03:02:24;;;;;;;2.80;2.47;;;7.80;1.00;;;;;;5012676;28;20184;-69
2024/02/26 03:04:50;;;;;;;2.40;2.10;;;7.80;1.00;;;;;;5031048;28;20185;-68
2024/02/26 03:07:16;;;;;;;2.43;1.97;;;7.80;1.00;;;;;;5034156;28;20188;-69
2024/02/26 03:09:41;;;;;;;2.07;1.80;;;7.80;1.00;;;;;;5156005;22;20203;-70
2024/02/26 03:12:07;;;;;;;2.13;1.77;;;7.70;1.00;;;;;;5055717;28;20261;-71
2024/02/26 03:14:32;;;;;;;1.90;1.70;;;7.70;1.00;;;;;;5055589;28;20172;-71
2024/02/26 03:16:58;;;;;;;2.40;1.80;;;7.80;1.00;;;;;;5055666;28;20184;-70
2024/02/26 03:19:23;;;;;;;4.87;2.00;;;7.80;1.00;;;;;;5055552;28;20594;-70
2024/02/26 03:21:49;;;;;;;3.07;2.30;;;7.80;1.00;;;;;;5055540;28;20178;-72
2024/02/26 03:24:15;;;;;;;2.60;2.00;;;7.80;1.00;;;;;;5055250;28;20207;-71
2024/02/26 03:26:40;;;;;;;3.30;1.70;;;7.80;1.00;;;;;;5055467;28;20175;-71
2024/02/26 03:29:06;;;;;;;2.43;1.80;;;7.70;1.00;;;;;;5055235;28;20639;-70
2024/02/26 03:31:31;;;;;;;3.00;1.90;;;7.80;1.00;;;;;;5055084;28;20212;-72
2024/02/26 03:33:57;;;;;;;2.23;1.43;;;7.80;1.00;;;;;;5054917;28;20620;-71
2024/02/26 03:36:22;;;;;;;2.33;1.53;;;7.80;1.00;;;;;;5055230;28;20209;-71
2024/02/26 03:38:48;;;;;;;2.73;1.97;;;7.70;1.00;;;;;;5037068;28;20177;-71
2024/02/26 03:41:14;;;;;;;3.20;1.57;;;7.70;1.00;;;;;;5055009;28;20185;-72
2024/02/26 03:43:40;;;;;;;2.00;1.50;;;7.70;1.00;;;;;;5054769;28;20984;-71
2024/02/26 03:46:13;;;;;;;2.73;1.80;;;7.70;1.00;;;;;;5055197;28;20450;-70
2024/02/26 03:48:40;;;;;;;2.50;1.63;;;7.70;1.00;;;;;;5055180;28;20172;-71
2024/02/26 03:51:05;;;;;;;3.10;1.83;;;7.60;1.00;;;;;;5054838;28;20805;-72
2024/02/26 03:53:31;;;;;;;2.07;1.63;;;7.60;1.00;;;;;;5054588;28;20455;-71
2024/02/26 03:55:56;;;;;;;1.77;1.40;;;7.60;1.00;;;;;;5054575;28;20175;-70
2024/02/26 03:58:22;;;;;;;1.80;1.50;;;7.50;1.00;;;;;;5054753;28;20172;-70
2024/02/26 04:00:47;;;;;;;1.90;1.47;;;7.50;1.00;;;;;;5036893;28;20278;-71
2024/02/26 04:03:13;;;;;;;5.20;1.87;;;7.50;1.00;;;;;;5054791;28;20643;-71
2024/02/26 04:05:39;;;;;;;2.00;1.57;;;7.30;1.00;;;;;;5037109;28;20182;-71
2024/02/26 04:08:07;;;;;;;3.27;2.00;;;7.30;1.00;;;;;;5054748;28;20888;-70
2024/02/26 04:10:35;;;;;;;3.00;1.87;;;7.40;1.00;;;;;;5054647;28;20215;-70
2024/02/26 04:13:00;;;;;;;1.93;1.50;;;7.40;1.00;;;;;;5054458;28;20469;-71
2024/02/26 04:15:26;;;;;;;2.90;1.50;;;7.40;1.00;;;;;;5054764;28;20413;-71
2024/02/26 04:17:51;;;;;;;1.97;1.47;;;7.30;1.00;;;;;;5054416;28;20202;-71
2024/02/26 04:20:17;;;;;;;2.50;1.60;;;7.30;1.00;;;;;;5054433;28;20614;-71
2024/02/26 04:22:43;;;;;;;2.93;1.73;;;7.40;1.00;;;;;;5036430;28;20264;-71
2024/02/26 04:25:08;;;;;;;2.57;1.90;;;7.40;1.00;;;;;;5054291;28;20208;-71
2024/02/26 04:27:34;;;;;;;1.70;1.33;;;7.40;1.00;;;;;;5036292;28;20458;-72
2024/02/26 04:29:59;;;;;;;2.73;1.90;;;7.50;1.00;;;;;;5053982;28;20484;-71
2024/02/26 04:32:25;;;;;;;2.80;1.73;;;7.40;1.00;;;;;;5054036;28;20202;-71
2024/02/26 04:34:50;;;;;;;2.10;1.50;;;7.40;1.00;;;;;;5054232;28;20180;-71
2024/02/26 04:37:16;;;;;;;3.20;1.33;;;7.40;1.00;;;;;;5054058;28;20222;-71
2024/02/26 04:39:42;;;;;;;2.23;1.73;;;7.40;1.00;;;;;;5053914;28;20202;-70
2024/02/26 04:42:07;;;;;;;2.40;1.90;;;7.30;1.00;;;;;;5054070;28;20306;-71
2024/02/26 04:44:33;;;;;;;4.67;1.60;;;7.40;1.00;;;;;;5036278;28;20182;-71
2024/02/26 04:46:58;;;;;;;2.00;1.57;;;7.40;1.00;;;;;;5054952;28;20201;-71
2024/02/26 04:49:24;;;;;;;2.20;1.73;;;7.40;1.00;;;;;;5054026;28;20181;-71
2024/02/26 04:51:50;;;;;;;2.53;1.70;;;7.30;1.00;;;;;;5054025;28;20210;-71
2024/02/26 04:54:15;;;;;;;2.30;1.50;;;7.30;1.00;;;;;;5053976;28;20229;-72
2024/02/26 04:56:41;;;;;;;3.43;1.80;;;7.50;1.00;;;;;;5036042;28;20175;-72
2024/02/26 04:59:07;;;;;;;2.47;1.93;;;7.50;1.00;;;;;;5053797;28;20168;-71
2024/02/26 05:01:32;;;;;;;2.47;1.80;;;7.50;1.00;;;;;;5053514;28;20510;-71
2024/02/26 05:03:58;;;;;;;2.93;1.87;;;7.50;1.00;;;;;;5053403;28;20172;-71
2024/02/26 05:06:23;;;;;;;3.00;2.40;;;7.40;1.00;;;;;;5053467;28;20181;-70
2024/02/26 05:08:49;;;;;;;3.00;2.07;;;7.40;1.00;;;;;;5053432;28;20172;-71
2024/02/26 05:11:14;;;;;;;2.40;1.83;;;7.50;1.00;;;;;;5053442;28;20212;-71
2024/02/26 05:13:40;;;;;;;2.27;1.60;;;7.60;1.00;;;;;;5053314;28;20172;-71
2024/02/26 05:16:06;;;;;;;2.73;1.90;;;7.70;1.00;;;;;;5053313;28;20577;-70
2024/02/26 05:18:31;;;;;;;3.67;2.47;;;7.60;1.00;;;;;;5053070;28;20447;-71
2024/02/26 05:20:57;;;;;;;2.80;2.40;;;7.70;1.00;;;;;;5052939;28;20331;-71
2024/02/26 05:23:22;;;;;;;4.90;3.60;;;7.70;1.00;;;;;;5052728;28;20283;-71
2024/02/26 05:25:49;;;;;;;3.30;2.50;;;7.70;1.00;;;;;;5052963;28;20597;-71
2024/02/26 05:28:15;;;;;;;2.27;1.63;;;7.70;1.00;;;;;;5052297;28;20200;-70
2024/02/26 05:30:42;;;;;;;3.93;2.27;;;7.60;1.00;;;;;;5052981;28;20439;-70
2024/02/26 05:33:07;;;;;;;2.80;2.33;;;7.50;1.00;;;;;;5052588;28;20483;-70
2024/02/26 05:35:33;;;;;;;5.70;2.30;;;7.40;1.00;;;;;;5052902;28;20419;-70
2024/02/26 05:37:58;;;;;;;2.83;2.00;;;7.50;1.00;;;;;;5052778;28;20598;-71
2024/02/26 05:40:24;;;;;;;2.87;1.90;;;7.50;1.00;;;;;;5034680;28;20565;-70
2024/02/26 05:42:49;;;;;;;2.67;2.03;;;7.50;1.00;;;;;;5034579;28;20195;-71
2024/02/26 05:45:15;;;;;;;2.20;1.50;;;7.50;1.00;;;;;;5034642;28;20180;-72
2024/02/26 05:47:43;;;;;;;4.53;1.97;;;7.50;1.00;;;;;;5052967;28;20175;-73
2024/02/26 05:50:10;;;;;;;4.40;2.47;;;7.50;1.00;;;;;;5034334;28;20199;-72
2024/02/26 05:52:36;;;;;;;3.90;2.13;;;7.40;1.00;;;;;;5051994;28;20487;-70
2024/02/26 05:55:02;;;;;;;3.00;1.60;;;7.30;1.00;;;;;;5052618;28;20401;-71
2024/02/26 05:57:28;;;;;;;4.87;2.20;;;7.00;1.00;;;;;;5052453;28;20433;-70
2024/02/26 05:59:53;;;;;;;3.00;2.07;;;6.80;1.00;;;;;;5034146;28;20913;-71
2024/02/26 06:02:19;;;;;;;3.23;2.10;;;6.70;1.00;;;;;;5051838;28;20179;-70
2024/02/26 06:04:46;;;;;;;2.00;1.53;;;6.60;1.00;;;;;;5052037;28;20674;-70
2024/02/26 06:07:11;;;;;;;2.57;1.60;;;6.70;1.00;;;;;;5052127;28;20735;-71
2024/02/26 06:09:37;;;;;;;2.30;1.50;;;6.80;1.00;;;;;;5051957;28;20438;-71
2024/02/26 06:12:03;;;;;;;4.70;2.47;;;6.90;1.00;;;;;;5052115;28;20214;-71
2024/02/26 06:14:28;;;;;;;2.80;1.93;;;6.90;1.00;;;;;;5052216;28;20570;-72
2024/02/26 06:16:54;;;;;;;4.00;2.47;;;6.90;1.00;;;;;;5052441;28;20712;-71
2024/02/26 06:19:19;;;;;;;3.40;2.80;;;7.00;1.00;;;;;;5051908;28;20619;-71
2024/02/26 06:21:45;;;;;;;2.70;2.20;;;7.00;1.00;;;;;;5051884;28;20244;-70
2024/02/26 06:24:10;;;;;;;3.60;1.97;;;7.00;1.00;;;;;;5052194;28;20183;-74
2024/02/26 06:26:36;;;;;;;2.80;2.10;;;7.00;1.00;;;;;;5052541;28;20593;-74
2024/02/26 06:29:01;;;;;;;4.33;2.30;;;6.90;1.00;;;;;;5052634;28;20175;-73
2024/02/26 06:31:27;;;;;;;7.60;2.30;;;6.70;1.00;;;;;;5052337;28;20195;-72
2024/02/26 06:33:56;;;;;;;3.80;2.40;;;6.80;1.00;;;;;;5052017;28;20176;-71
2024/02/26 06:36:22;;;;;;;4.80;2.77;;;6.80;1.00;;;;;;5052380;28;20402;-73
2024/02/26 06:38:49;;;;;;;4.50;2.67;;;6.70;1.00;;;;;;5052077;28;20408;-72
2024/02/26 06:41:14;;;;;;;5.57;2.90;;;6.80;1.00;;;;;;5052062;28;20435;-73
2024/02/26 06:43:40;;;;;;;3.23;2.17;;;6.80;1.00;;;;;;5052352;28;20763;-73
2024/02/26 06:46:06;;;;;;;4.93;2.10;;;6.80;1.00;;;;;;5034290;28;20635;-68
2024/02/26 06:48:32;;;;;;;3.13;2.00;;;6.90;1.00;;;;;;5051508;28;20194;-69
2024/02/26 06:50:57;;;;;;;3.50;2.23;;;7.00;1.00;;;;;;5051988;28;20430;-68
2024/02/26 06:53:23;;;;;;;10.63;2.20;;;7.00;1.00;;;;;;5052320;28;20199;-69
2024/02/26 06:55:50;;;;;;;4.20;2.27;;;7.00;1.00;;;;;;5052246;28;20629;-69
2024/02/26 06:58:15;;;;;;;4.53;2.57;;;7.10;1.00;;;;;;5051767;28;20172;-69
2024/02/26 07:00:41;;;;;;;3.73;2.43;;;7.20;1.00;;;;;;5051639;28;20895;-68
2024/02/26 07:03:06;;;;;;;4.53;2.30;;;7.40;1.00;;;;;;5051074;28;20167;-68
2024/02/26 07:05:32;;;;;;;3.90;2.33;;;7.50;1.00;;;;;;5033438;28;20185;-69
2024/02/26 07:07:57;;;;;;;5.17;2.30;;;7.60;1.00;;;;;;5051657;28;20179;-68
2024/02/26 07:10:23;;;;;;;2.90;2.00;;;7.60;1.00;;;;;;5051329;28;20212;-69
2024/02/26 07:12:48;;;;;;;2.60;1.90;;;7.80;1.00;;;;;;5051106;28;20257;-69
2024/02/26 07:15:14;;;;;;;2.87;1.87;;;8.00;1.00;;;;;;5051744;28;20176;-68
2024/02/26 07:17:46;;;;;;;4.23;2.47;;;8.10;1.00;;;;;;5051391;28;20181;-68
2024/02/26 07:20:12;;;;;;;3.37;2.50;;;8.20;1.00;;;;;;5051292;28;20209;-68
2024/02/26 07:22:38;;;;;;;4.57;3.00;;;8.30;1.00;;;;;;5051340;28;20416;-69
2024/02/26 07:25:04;;;;;;;4.07;2.70;;;8.30;1.00;;;;;;5051389;28;20430;-69
2024/02/26 07:27:29;;;;;;;3.13;2.23;;;8.30;1.00;;;;;;5033253;28;20203;-67
2024/02/26 07:29:55;;;;;;;3.20;2.23;;;8.30;1.00;;;;;;5051363;28;20484;-69
2024/02/26 07:32:20;;;;;;;4.57;2.87;;;8.30;1.00;;;;;;5051018;28;20232;-68
2024/02/26 07:34:46;;;;;;;5.77;4.07;;;8.40;1.00;;;;;;5051219;28;20177;-69
2024/02/26 07:37:12;;;;;;;5.23;4.20;;;8.30;1.00;;;;;;5033174;28;20186;-69
2024/02/26 07:39:37;;;;;;;3.20;2.83;;;8.30;1.00;;;;;;5051476;28;20425;-68
2024/02/26 07:42:03;;;;;;;7.33;5.30;;;8.30;1.00;;;;;;5033416;28;20187;-68
2024/02/26 07:44:28;;;;;;;5.20;4.03;;;8.30;1.00;;;;;;5050910;28;20184;-69
2024/02/26 07:46:54;;;;;;;4.80;3.87;;;8.30;1.00;;;;;;5050709;28;20175;-69
2024/02/26 07:49:19;;;;;;;5.47;3.10;;;8.40;1.00;;;;;;5047326;28;20270;-69
2024/02/26 07:51:45;;;;;;;6.57;3.70;;;8.40;1.00;;;;;;5046127;28;20205;-69
2024/02/26 07:54:10;;;;;;;5.53;3.73;;;8.50;1.00;;;;;;5029772;28;20188;-69
2024/02/26 07:56:36;;;;;;;5.50;3.10;;;8.50;1.00;;;;;;5035427;28;20196;-68
2024/02/26 07:59:02;;;;;;;4.83;3.70;;;8.50;1.00;;;;;;5048567;28;20197;-68
2024/02/26 08:01:27;;;;;;;5.67;3.20;;;8.40;1.00;;;;;;5053201;28;20303;-68
2024/02/26 08:03:53;;;;;;;4.70;3.30;;;8.50;1.00;;;;;;5047673;28;20225;-68
2024/02/26 08:06:19;;;;;;;4.30;3.43;;;8.60;1.00;;;;;;5050509;28;20189;-68
2024/02/26 08:08:45;;;;;;;5.07;3.20;;;8.70;1.00;;;;;;5050394;28;20499;-68
2024/02/26 08:11:10;;;;;;;3.70;2.57;;;8.90;1.00;;;;;;5028751;28;20217;-66
2024/02/26 08:13:36;;;;;;;4.13;2.90;;;9.10;1.00;;;;;;5030475;28;20214;-68
2024/02/26 08:16:01;;;;;;;4.40;2.80;;;9.30;1.00;;;;;;5036468;28;20192;-68
2024/02/26 08:18:27;;;;;;;3.70;2.80;;;9.40;1.00;;;;;;5050204;28;20182;-68
2024/02/26 08:20:52;;;;;;;6.13;2.47;;;9.50;1.00;;;;;;5040091;28;20631;-67
2024/02/26 08:23:18;;;;;;;4.37;2.83;;;9.60;1.00;;;;;;5058915;28;20523;-68
2024/02/26 08:25:43;;;;;;;4.97;3.40;;;9.80;1.00;;;;;;5036009;28;20190;-68
2024/02/26 08:28:13;;;;;;;6.50;3.20;;;9.90;1.00;;;;;;5053734;28;20649;-70
2024/02/26 08:30:38;;;;;;;3.77;2.40;;;9.90;1.00;;;;;;5053538;28;20232;-68
2024/02/26 08:33:04;;;;;;;2.50;2.00;;;9.90;1.00;;;;;;5033839;28;20461;-68
2024/02/26 08:35:29;;;;;;;4.53;3.03;;;9.90;1.00;;;;;;5054234;28;20650;-69
2024/02/26 08:37:55;;;;;;;3.60;2.50;;;10.00;1.00;;;;;;5057736;28;20593;-68
2024/02/26 08:40:20;;;;;;;3.90;2.97;;;9.90;1.00;;;;;;5035579;28;20657;-69
2024/02/26 08:42:46;;;;;;;7.40;4.20;;;10.00;1.00;;;;;;5053225;28;20191;-69
2024/02/26 08:45:15;;;;;;;4.60;2.77;;;10.20;1.00;;;;;;5053404;28;20178;-69
2024/02/26 08:47:40;;;;;;;5.50;2.80;;;10.40;1.00;;;;;;5053426;28;20217;-69
2024/02/26 08:50:06;;;;;;;4.40;3.57;;;10.70;1.00;;;;;;5053452;28;20534;-69
2024/02/26 08:52:33;;;;;;;4.63;2.80;;;10.90;1.00;;;;;;5053009;28;20209;-68
2024/02/26 08:54:58;;;;;;;4.20;3.07;;;10.70;1.00;;;;;;5053235;28;20428;-68
2024/02/26 08:57:26;;;;;;;4.67;2.50;;;10.60;1.00;;;;;;5050861;28;20422;-68
2024/02/26 08:59:52;;;;;;;3.13;2.67;;;10.70;1.00;;;;;;5033042;28;20392;-68
2024/02/26 09:02:19;;;;;;;4.63;2.67;;;10.60;1.00;;;;;;5052553;28;20508;-68
2024/02/26 09:04:45;;;;;;;5.87;2.90;;;10.70;1.00;;;;;;5052349;28;20303;-68
2024/02/26 09:07:10;;;;;;;5.37;2.50;;;10.60;1.00;;;;;;5052592;28;20784;-67
2024/02/26 09:09:36;;;;;;;3.90;2.37;;;10.50;1.00;;;;;;5052766;28;20202;-69
2024/02/26 09:12:02;;;;;;;4.60;2.50;;;10.70;1.00;;;;;;5053980;28;20260;-68
2024/02/26 09:14:27;;;;;;;5.20;2.63;;;10.80;1.00;;;;;;5053135;28;20182;-68
2024/02/26 09:16:53;;;;;;;3.90;2.70;;;10.80;1.00;;;;;;5053399;28;20425;-69
2024/02/26 09:19:19;;;;;;;5.87;2.50;;;10.70;1.00;;;;;;5052951;28;20170;-69
2024/02/26 09:21:45;;;;;;;4.23;2.27;;;10.70;1.00;;;;;;5053276;28;20183;-69
2024/02/26 09:24:11;;;;;;;4.80;2.83;;;10.70;1.00;;;;;;5052810;28;20614;-69
2024/02/26 09:26:37;;;;;;;4.30;2.83;;;10.60;1.00;;;;;;5052815;28;20504;-68
2024/02/26 09:29:03;;;;;;;3.33;2.53;;;10.70;1.00;;;;;;5050042;28;20551;-68
2024/02/26 09:31:29;;;;;;;3.23;2.20;;;10.80;1.00;;;;;;5044647;28;20834;-67
2024/02/26 09:33:55;;;;;;;4.10;2.40;;;10.80;1.00;;;;;;5052550;28;20496;-68
2024/02/26 09:36:21;;;;;;;3.90;2.73;;;11.00;1.00;;;;;;5052754;28;20646;-67
2024/02/26 09:38:47;;;;;;;3.27;2.43;;;11.30;1.00;;;;;;5052856;28;20224;-67
2024/02/26 09:41:19;;;;;;;4.53;2.53;;;11.80;1.00;;;;;;5052561;28;20437;-69
2024/02/26 09:43:48;;;;;;;3.17;2.40;;;12.10;1.00;;;;;;5051194;28;20549;-67
2024/02/26 09:46:15;;;;;;;3.50;2.43;;;12.10;1.00;;;;;;5052427;28;20422;-68
2024/02/26 09:48:43;;;;;;;3.30;2.77;;;12.20;1.00;;;;;;5034557;28;20546;-68
2024/02/26 09:51:11;;;;;;;2.80;2.50;;;12.30;1.00;;;;;;5052572;28;20440;-68
2024/02/26 09:53:43;;;;;;;2.60;2.40;;;12.50;1.00;;;;;;5051920;28;20511;-68
2024/02/26 09:56:11;;;;;;;4.60;2.80;;;12.40;1.00;;;;;;5052526;28;20852;-69
2024/02/26 09:58:37;;;;;;;6.80;3.70;;;12.40;1.00;;;;;;5052197;28;20849;-69
2024/02/26 10:01:05;;;;;;;4.10;3.43;;;12.50;1.00;;;;;;5052165;28;21034;-68
2024/02/26 10:03:38;;;;;;;6.83;3.80;;;12.50;1.00;;;;;;5052072;28;20537;-68
2024/02/26 10:06:08;;;;;;;5.10;3.30;;;12.30;1.00;;;;;;5052182;28;20956;-70
2024/02/26 10:08:35;;;;;;;5.40;4.20;;;12.10;1.00;;;;;;5052235;28;20434;-68
2024/02/26 10:11:01;;;;;;;4.13;3.50;;;12.20;1.00;;;;;;5052122;28;20461;-68
2024/02/26 10:13:26;;;;;;;5.37;3.43;;;12.40;1.00;;;;;;5051802;28;20469;-67
2024/02/26 10:15:52;;;;;;;7.60;3.27;;;12.60;1.00;;;;;;5051911;28;20184;-67
2024/02/26 10:18:20;;;;;;;8.13;4.17;;;12.50;1.00;;;;;;5052108;28;20175;-67
2024/02/26 10:21:01;;;;;;;3.30;2.87;;;12.40;1.00;;;;;;5033832;28;20842;-67
2024/02/26 10:23:28;;;;;;;3.20;2.90;;;12.70;1.00;;;;;;5029249;28;20943;-68
2024/02/26 10:25:59;;;;;;;10.17;3.10;;;12.90;1.00;;;;;;5034020;28;20431;-68
2024/02/26 10:28:25;;;;;;;4.50;3.10;;;12.60;1.00;;;;;;5034711;28;20466;-69
2024/02/26 10:31:00;;;;;;;4.90;2.90;;;12.60;1.00;;;;;;5051701;28;20537;-69
2024/02/26 10:33:27;;;;;;;3.50;2.80;;;12.70;1.00;;;;;;5051369;28;20689;-69
2024/02/26 10:35:54;;;;;;;3.67;2.50;;;12.60;1.00;;;;;;5051118;28;20428;-69
2024/02/26 10:38:20;;;;;;;3.80;2.67;;;12.50;1.00;;;;;;5051779;28;20596;-69
2024/02/26 10:40:48;;;;;;;8.20;2.97;;;12.40;1.00;;;;;;5051930;28;20935;-69
2024/02/26 10:43:18;;;;;;;6.10;2.10;;;12.50;1.00;;;;;;5051423;28;20505;-68
2024/02/26 10:45:53;;;;;;;4.30;3.33;;;12.40;1.00;;;;;;5051767;28;20423;-69
2024/02/26 10:48:18;;;;;;;5.70;2.87;;;12.20;1.00;;;;;;5051744;28;20885;-67
2024/02/26 10:50:50;;;;;;;4.10;2.57;;;12.00;1.00;;;;;;5054234;28;20528;-71
2024/02/26 10:53:28;;;;;;;3.17;2.50;;;12.00;1.00;;;;;;5052256;28;20955;-67
2024/02/26 10:56:07;;;;;;;3.83;2.50;;;11.80;1.00;;;;;;5033869;28;20421;-68
2024/02/26 10:58:34;;;;;;;3.00;2.23;;;11.70;1.00;;;;;;5051476;28;20426;-69
2024/02/26 11:01:00;;;;;;;3.17;2.30;;;11.80;1.00;;;;;;5051097;28;20511;-68
2024/02/26 11:03:31;;;;;;;3.33;2.10;;;11.90;1.00;;;;;;5051236;28;20417;-69
2024/02/26 11:05:58;;;;;;;5.93;2.47;;;12.10;1.00;;;;;;5051715;28;20453;-69
2024/02/26 11:08:24;;;;;;;3.20;2.40;;;12.20;1.00;;;;;;5051507;28;20774;-70
2024/02/26 11:10:53;;;;;;;5.40;3.10;;;12.00;1.00;;;;;;5051156;28;20487;-68
2024/02/26 11:13:24;;;;;;;5.30;2.60;;;12.10;1.00;;;;;;5050584;28;20461;-68
2024/02/26 11:15:51;;;;;;;4.47;2.97;;;12.10;1.00;;;;;;5033521;28;20425;-68
2024/02/26 11:18:19;;;;;;;3.63;3.13;;;12.20;1.00;;;;;;5051614;28;20825;-67
2024/02/26 11:20:45;;;;;;;6.17;3.00;;;12.30;1.00;;;;;;5051173;28;20445;-69
2024/02/26 11:23:15;;;;;;;4.50;3.40;;;12.40;1.00;;;;;;5051229;28;20417;-68
2024/02/26 11:25:41;;;;;;;3.57;2.80;;;12.60;1.00;;;;;;5051203;28;20425;-68
2024/02/26 11:28:12;;;;;;;2.73;2.40;;;12.90;1.00;;;;;;5054800;28;20506;-70
2024/02/26 11:30:43;;;;;;;10.10;3.40;;;12.90;1.00;;;;;;5037460;28;20203;-69
2024/02/26 11:33:10;;;;;;;6.30;3.37;;;13.00;1.00;;;;;;5035140;28;20822;-68
2024/02/26 11:35:36;;;;;;;6.97;3.90;;;13.20;1.00;;;;;;5035198;28;20551;-67
2024/02/26 11:38:06;;;;;;;3.43;3.07;;;13.20;1.00;;;;;;5052881;28;20508;-68
2024/02/26 11:40:47;;;;;;;5.50;3.80;;;13.10;1.00;;;;;;5036900;28;20997;-68
2024/02/26 11:43:16;;;;;;;3.10;2.60;;;13.30;1.00;;;;;;5054877;28;20790;-70
2024/02/26 11:45:43;;;;;;;4.60;3.20;;;13.40;1.00;;;;;;5037285;28;20444;-70
2024/02/26 11:48:35;;;;;;;6.87;3.40;;;13.60;1.00;;;;;;5036683;28;20434;-69
2024/02/26 11:51:01;;;;;;;7.07;3.67;;;13.70;1.00;;;;;;5050081;28;20671;-69
2024/02/26 11:53:35;;;;;;;3.80;2.87;;;13.60;1.00;;;;;;5054747;28;20490;-71
2024/02/26 11:56:36;;;;;;;5.33;3.30;;;13.50;1.00;;;;;;5055094;28;20750;-70
2024/02/26 11:59:10;;;;;;;4.17;3.27;;;13.70;1.00;;;;;;5002247;28;20985;-70
2024/02/26 12:01:47;;;;;;;6.93;3.67;;;13.90;1.00;;;;;;5054702;28;20927;-71
2024/02/26 12:04:30;;;;;;;6.33;3.20;;;14.20;1.00;;;;;;5054854;28;20435;-71
2024/02/26 12:06:57;;;;;;;3.67;3.37;;;14.50;1.00;;;;;;5036664;28;20425;-71
2024/02/26 12:09:36;;;;;;;5.83;4.10;;;14.70;1.00;;;;;;5054546;28;20421;-71
2024/02/26 12:12:06;;;;;;;4.60;3.70;;;14.60;1.00;;;;;;5054591;28;20559;-70
2024/02/26 12:14:51;;;;;;;4.40;3.03;;;14.50;1.00;;;;;;5038131;28;20912;-69
2024/02/26 12:17:35;;;;;;;3.30;3.00;;;14.40;1.00;;;;;;5052828;28;20428;-70
2024/02/26 12:20:25;;;;;;;6.40;3.00;;;14.40;1.00;;;;;;5054526;28;20802;-71
2024/02/26 12:22:57;;;;;;;6.93;3.33;;;14.40;1.00;;;;;;5054407;28;20417;-70
2024/02/26 12:25:26;;;;;;;2.87;2.57;;;14.40;1.00;;;;;;5036713;28;20425;-72
2024/02/26 12:28:06;;;;;;;3.30;2.80;;;14.50;1.00;;;;;;5054579;28;20432;-70
2024/02/26 12:30:31;;;;;;;4.10;3.00;;;14.60;1.00;;;;;;5054120;28;20456;-70
2024/02/26 12:32:58;;;;;;;4.60;3.30;;;14.50;1.00;;;;;;5054222;28;20933;-71
2024/02/26 12:35:24;;;;;;;3.40;3.10;;;14.50;1.00;;;;;;5054461;28;20182;-70
2024/02/26 12:37:54;;;;;;;5.43;3.07;;;14.50;1.00;;;;;;5053917;28;20428;-71
2024/02/26 12:40:23;;;;;;;5.77;4.03;;;14.50;1.00;;;;;;5036213;28;21008;-70
2024/02/26 12:42:49;;;;;;;4.90;2.80;;;14.50;1.00;;;;;;5049605;28;20447;-69
2024/02/26 12:45:16;;;;;;;3.33;2.97;;;14.50;1.00;;;;;;5044743;28;20897;-70
2024/02/26 12:47:43;;;;;;;4.60;3.20;;;14.40;1.00;;;;;;5042505;28;20688;-70
2024/02/26 12:50:10;;;;;;;3.20;2.90;;;14.40;1.00;;;;;;5050808;28;20450;-70
2024/02/26 12:52:38;;;;;;;3.30;2.20;;;14.50;1.00;;;;;;5052980;28;20463;-70
2024/02/26 12:55:07;;;;;;;2.87;2.50;;;14.20;1.00;;;;;;5053748;28;20415;-70
2024/02/26 12:57:33;;;;;;;3.27;2.30;;;14.00;1.00;;;;;;5031515;28;20434;-70
2024/02/26 13:00:03;;;;;;;2.97;2.67;;;14.10;1.00;;;;;;5033608;28;20929;-70
2024/02/26 13:02:31;;;;;;;4.50;2.40;;;14.00;1.00;;;;;;5033481;28;20414;-70
2024/02/26 13:04:57;;;;;;;2.30;2.07;;;13.90;1.00;;;;;;5034043;28;20438;-68